createdAt,value
2022-08-17T00:11:33.964Z,0.00
2022-08-17T00:12:43.070Z,0.00
2022-08-17T00:14:34.256Z,0.00
2022-08-17T00:15:34.084Z,0.00
2022-08-17T00:16:52.613Z,0.00
2022-08-17T00:19:34.210Z,0.00
2022-08-17T00:20:35.078Z,0.00
2022-08-17T00:21:57.922Z,0.00
2022-08-17T00:27:34.459Z,0.00
2022-08-17T00:30:51.316Z,0.00
2022-08-17T00:35:34.899Z,0.00
2022-08-17T00:36:35.335Z,0.00
2022-08-17T00:42:35.319Z,0.00
2022-08-17T00:51:35.395Z,0.00
2022-08-17T00:52:35.712Z,0.00
2022-08-17T00:59:35.634Z,0.00
2022-08-17T01:01:35.958Z,0.00
2022-08-17T01:03:35.756Z,0.00
2022-08-17T01:06:35.651Z,0.00
2022-08-17T01:09:39.966Z,0.00
2022-08-17T01:10:57.619Z,0.00
2022-08-17T01:11:36.994Z,0.00
2022-08-17T01:12:35.808Z,0.00
2022-08-17T01:13:40.800Z,0.00
2022-08-17T01:14:35.868Z,0.00
2022-08-17T01:15:35.903Z,0.00
2022-08-17T01:16:35.931Z,0.00
2022-08-17T01:17:35.961Z,0.00
2022-08-17T01:18:35.988Z,0.00
2022-08-17T01:19:36.022Z,0.00
2022-08-17T01:20:47.910Z,0.00
2022-08-17T01:21:36.082Z,0.00
2022-08-17T01:22:36.111Z,0.00
2022-08-17T01:23:36.144Z,0.00
2022-08-17T01:24:36.174Z,0.00
2022-08-17T01:25:36.206Z,0.00
2022-08-17T01:26:36.235Z,0.00
2022-08-17T01:27:36.265Z,0.00
2022-08-17T01:28:53.741Z,0.00
2022-08-17T01:29:36.327Z,0.00
2022-08-17T01:30:58.000Z,0.00
2022-08-17T01:31:36.388Z,0.00
2022-08-17T01:32:36.417Z,0.00
2022-08-17T01:36:36.955Z,0.00
2022-08-17T01:37:36.588Z,0.00
2022-08-17T01:38:37.021Z,0.00
2022-08-17T01:41:36.998Z,0.00
2022-08-17T01:45:36.826Z,0.00
2022-08-17T01:56:38.377Z,0.00
2022-08-17T01:58:38.340Z,0.00
2022-08-17T02:00:46.901Z,0.00
2022-08-17T02:02:37.553Z,0.00
2022-08-17T02:04:10.793Z,0.00
2022-08-17T02:13:37.882Z,0.00
2022-08-17T02:14:38.118Z,0.00
2022-08-17T02:18:37.820Z,0.00
2022-08-17T02:20:42.664Z,0.00
2022-08-17T02:21:39.244Z,0.00
2022-08-17T02:29:39.577Z,0.00
2022-08-17T02:37:39.727Z,0.00
2022-08-17T02:40:39.822Z,0.00
2022-08-17T02:49:38.755Z,0.00
2022-08-17T02:58:39.755Z,0.00
2022-08-17T03:01:39.144Z,0.00
2022-08-17T03:02:39.151Z,0.00
2022-08-17T03:03:39.181Z,0.00
2022-08-17T03:04:39.211Z,0.00
2022-08-17T03:05:39.254Z,0.00
2022-08-17T03:06:39.689Z,0.00
2022-08-17T03:07:40.214Z,0.00
2022-08-17T03:30:40.037Z,0.00
2022-08-17T05:18:09.797Z,1816.00
2022-08-17T05:19:09.828Z,1884.00
2022-08-17T05:20:09.857Z,1952.00
2022-08-17T05:21:09.891Z,1988.00
2022-08-17T05:22:09.919Z,2008.00
2022-08-17T05:23:09.951Z,2024.00
2022-08-17T06:11:14.039Z,4528.00
2022-08-17T06:12:14.329Z,4940.00
2022-08-17T06:13:11.478Z,6192.00
2022-08-17T06:14:11.928Z,12620.00
2022-08-17T06:15:11.542Z,19392.00
2022-08-17T06:16:28.221Z,13244.00
2022-08-17T06:17:14.221Z,12096.00
2022-08-17T06:30:12.012Z,5232.00
2022-08-17T06:34:13.060Z,5496.00
2022-08-17T06:52:12.697Z,30784.00
2022-08-17T06:53:13.144Z,24512.00
2022-08-17T06:54:12.976Z,21088.00
2022-08-17T06:55:18.171Z,14484.00
2022-08-17T06:57:12.860Z,10608.00
2022-08-17T07:01:13.453Z,12428.00
2022-08-17T07:02:13.633Z,10008.00
2022-08-17T07:03:13.053Z,9112.00
2022-08-17T07:04:13.102Z,9688.00
2022-08-17T07:05:13.124Z,10248.00
2022-08-17T07:06:13.157Z,11264.00
2022-08-17T07:07:13.185Z,14860.00
2022-08-17T07:08:13.223Z,16352.00
2022-08-17T07:09:13.260Z,10020.00
2022-08-17T07:10:13.290Z,8000.00
2022-08-17T07:11:13.318Z,7352.00
2022-08-17T07:12:13.355Z,6936.00
2022-08-17T07:13:13.386Z,6652.00
2022-08-17T07:14:17.150Z,6500.00
2022-08-17T07:15:14.868Z,6484.00
2022-08-17T07:16:13.488Z,6608.00
2022-08-17T07:17:13.518Z,6976.00
2022-08-17T07:18:13.552Z,7668.00
2022-08-17T07:19:13.581Z,7792.00
2022-08-17T07:20:13.617Z,7844.00
2022-08-17T07:21:17.346Z,7820.00
2022-08-17T07:22:13.684Z,7932.00
2022-08-17T07:23:13.714Z,8172.00
2022-08-17T07:24:29.701Z,8500.00
2022-08-17T07:25:13.780Z,9176.00
2022-08-17T07:26:13.815Z,10508.00
2022-08-17T07:27:13.846Z,13688.00
2022-08-17T07:28:13.881Z,15660.00
2022-08-17T07:29:13.911Z,15592.00
2022-08-17T07:30:13.945Z,15508.00
2022-08-17T07:31:13.977Z,14408.00
2022-08-17T07:32:14.013Z,14164.00
2022-08-17T07:33:14.043Z,12568.00
2022-08-17T07:34:14.077Z,11300.00
2022-08-17T07:35:15.293Z,10340.00
2022-08-17T07:36:14.147Z,9604.00
2022-08-17T07:37:14.177Z,8984.00
2022-08-17T07:38:24.857Z,8528.00
2022-08-17T07:39:14.242Z,8460.00
2022-08-17T07:40:16.218Z,9092.00
2022-08-17T07:41:14.310Z,9572.00
2022-08-17T07:42:14.341Z,10188.00
2022-08-17T07:43:21.778Z,10172.00
2022-08-17T07:44:14.408Z,10272.00
2022-08-17T07:45:14.439Z,10176.00
2022-08-17T07:46:14.474Z,10172.00
2022-08-17T08:05:51.025Z,13308.00
2022-08-17T08:06:50.250Z,12424.00
2022-08-17T08:07:50.635Z,11404.00
2022-08-17T08:09:50.546Z,10532.00
2022-08-17T08:10:50.377Z,10668.00
2022-08-17T08:12:52.762Z,8676.00
2022-08-17T08:13:51.288Z,7636.00
2022-08-17T08:14:50.711Z,6888.00
2022-08-17T08:16:50.578Z,6224.00
2022-08-17T08:20:53.723Z,6432.00
2022-08-17T08:21:50.947Z,6240.00
2022-08-17T08:22:50.771Z,5944.00
2022-08-17T08:23:51.520Z,5572.00
2022-08-17T08:26:51.606Z,4372.00
2022-08-17T08:27:51.373Z,4076.00
2022-08-17T08:33:51.136Z,3056.00
2022-08-17T08:35:01.594Z,2992.00
2022-08-17T08:35:51.195Z,3024.00
2022-08-17T08:37:12.690Z,3212.00
2022-08-17T08:37:51.345Z,3572.00
2022-08-17T08:38:52.190Z,3956.00
2022-08-17T08:39:51.760Z,4196.00
2022-08-17T08:41:51.592Z,3964.00
2022-08-17T08:42:51.620Z,3628.00
2022-08-17T08:43:53.174Z,3268.00
2022-08-17T08:46:51.549Z,2708.00
2022-08-17T08:48:55.813Z,2612.00
2022-08-17T08:50:51.671Z,2572.00
2022-08-17T08:52:51.733Z,2528.00
2022-08-17T08:53:52.277Z,2488.00
2022-08-17T08:54:52.004Z,2436.00
2022-08-17T08:55:52.433Z,2356.00
2022-08-17T08:57:21.588Z,2276.00
2022-08-17T08:58:51.923Z,2220.00
2022-08-17T09:01:52.054Z,2560.00
2022-08-17T09:05:36.411Z,2932.00
2022-08-17T09:07:36.082Z,3204.00
2022-08-17T09:09:41.315Z,3416.00
2022-08-17T09:10:38.723Z,3556.00
2022-08-17T09:12:02.560Z,3680.00
2022-08-17T09:12:38.789Z,3756.00
2022-08-17T09:13:38.818Z,3736.00
2022-08-17T09:14:44.945Z,3644.00
2022-08-17T09:15:38.993Z,3524.00
2022-08-17T09:17:39.159Z,3380.00
2022-08-17T09:19:39.003Z,3272.00
2022-08-17T09:20:39.037Z,3200.00
2022-08-17T09:21:39.064Z,3160.00
2022-08-17T09:22:39.098Z,3156.00
2022-08-17T09:23:39.127Z,3144.00
2022-08-17T09:24:39.160Z,3092.00
2022-08-17T09:25:39.192Z,3036.00
2022-08-17T09:26:39.224Z,2956.00
2022-08-17T09:27:39.264Z,2840.00
2022-08-17T09:28:39.302Z,2696.00
2022-08-17T09:29:40.242Z,2528.00
2022-08-17T09:30:39.364Z,2408.00
2022-08-17T09:31:49.118Z,2376.00
2022-08-17T09:32:40.235Z,2400.00
2022-08-17T09:34:39.489Z,2408.00
2022-08-17T09:35:39.727Z,2356.00
2022-08-17T09:36:39.552Z,2300.00
2022-08-17T09:37:39.999Z,2216.00
2022-08-17T09:38:39.820Z,2096.00
2022-08-17T09:43:40.891Z,1636.00
2022-08-17T09:44:39.803Z,1628.00
2022-08-17T09:47:39.895Z,1676.00
2022-08-17T09:48:41.236Z,1724.00
2022-08-17T09:50:55.529Z,1912.00
2022-08-17T09:51:40.030Z,2032.00
2022-08-17T09:54:40.882Z,2272.00
2022-08-17T09:57:40.419Z,1856.00
2022-08-17T10:00:40.821Z,1952.00
2022-08-17T10:03:40.604Z,2808.00
2022-08-17T10:04:40.639Z,3188.00
2022-08-17T10:06:40.696Z,4168.00
2022-08-17T10:07:40.936Z,4676.00
2022-08-17T10:10:41.907Z,5664.00
2022-08-17T10:12:46.476Z,6004.00
2022-08-17T10:14:43.766Z,6436.00
2022-08-17T10:16:41.623Z,6496.00
2022-08-17T10:19:43.933Z,6688.00
2022-08-17T10:20:41.138Z,7220.00
2022-08-17T10:21:40.970Z,7804.00
2022-08-17T10:22:41.712Z,8644.00
2022-08-17T10:27:41.162Z,10168.00
2022-08-17T10:28:41.390Z,9808.00
2022-08-17T10:32:41.518Z,9544.00
2022-08-17T10:34:41.985Z,10108.00
2022-08-17T10:35:41.623Z,10624.00
2022-08-17T10:36:41.643Z,11120.00
2022-08-17T10:37:41.484Z,11244.00
2022-08-17T10:40:41.778Z,11896.00
2022-08-17T10:41:41.813Z,12452.00
2022-08-17T10:42:41.835Z,12840.00
2022-08-17T10:52:42.372Z,17568.00
2022-08-17T10:53:41.980Z,17184.00
2022-08-17T10:54:42.016Z,16224.00
2022-08-17T10:55:42.045Z,17920.00
2022-08-17T10:56:42.080Z,15880.00
2022-08-17T10:57:42.112Z,15316.00
2022-08-17T10:58:42.146Z,15440.00
2022-08-17T10:59:42.184Z,14468.00
2022-08-17T11:00:42.287Z,14932.00
2022-08-17T11:01:42.244Z,14560.00
2022-08-17T11:10:42.548Z,12496.00
2022-08-17T11:11:42.580Z,12840.00
2022-08-17T11:12:42.617Z,12964.00
2022-08-17T11:13:42.649Z,12156.00
2022-08-17T11:14:42.683Z,11576.00
2022-08-17T11:15:42.718Z,11468.00
2022-08-17T11:16:42.770Z,11336.00
2022-08-17T11:17:42.799Z,11692.00
2022-08-17T11:18:42.840Z,11752.00
2022-08-17T11:19:42.869Z,11600.00
2022-08-17T11:20:42.903Z,11684.00
2022-08-17T11:21:42.933Z,11212.00
2022-08-17T11:22:42.956Z,11344.00
2022-08-17T11:23:42.989Z,11156.00
2022-08-17T11:24:44.661Z,11784.00
2022-08-17T11:25:43.058Z,12052.00
2022-08-17T11:26:43.092Z,12252.00
2022-08-17T11:27:43.126Z,11656.00
2022-08-17T11:28:43.163Z,11712.00
2022-08-17T11:29:43.195Z,12644.00
2022-08-17T11:30:43.584Z,12556.00
2022-08-17T11:31:43.481Z,12152.00
2022-08-17T11:32:47.717Z,12176.00
2022-08-17T11:33:43.330Z,12712.00
2022-08-17T11:34:43.372Z,13232.00
2022-08-17T11:35:43.400Z,13356.00
2022-08-17T11:36:43.435Z,13104.00
2022-08-17T11:37:43.474Z,12616.00
2022-08-17T11:38:43.526Z,12408.00
2022-08-17T11:39:43.590Z,12276.00
2022-08-17T11:40:43.573Z,12144.00
2022-08-17T11:41:43.617Z,11864.00
2022-08-17T11:42:43.701Z,11336.00
2022-08-17T11:43:43.692Z,10864.00
2022-08-17T11:44:43.713Z,10484.00
2022-08-17T11:45:43.751Z,10240.00
2022-08-17T11:46:43.779Z,10168.00
2022-08-17T11:47:57.015Z,10160.00
2022-08-17T11:48:43.847Z,10328.00
2022-08-17T11:49:43.881Z,10584.00
2022-08-17T11:50:43.917Z,11104.00
2022-08-17T11:51:43.947Z,11716.00
2022-08-17T11:52:46.052Z,12160.00
2022-08-17T11:53:44.016Z,12960.00
2022-08-17T11:54:44.052Z,13452.00
2022-08-17T11:55:45.061Z,14024.00
2022-08-17T11:56:44.119Z,14316.00
2022-08-17T11:57:44.153Z,14424.00
2022-08-17T11:58:44.186Z,15008.00
2022-08-17T11:59:44.221Z,15232.00
2022-08-17T12:00:44.258Z,14276.00
2022-08-17T12:01:44.288Z,14472.00
2022-08-17T12:02:47.875Z,13976.00
2022-08-17T12:03:55.614Z,13360.00
2022-08-17T12:04:44.471Z,12660.00
2022-08-17T12:05:44.425Z,12108.00
2022-08-17T12:06:44.461Z,11348.00
2022-08-17T12:07:44.570Z,10748.00
2022-08-17T12:08:44.530Z,10212.00
2022-08-17T12:09:47.249Z,9576.00
2022-08-17T12:10:44.595Z,8992.00
2022-08-17T12:11:55.413Z,8572.00
2022-08-17T12:12:44.663Z,8192.00
2022-08-17T12:13:44.701Z,7928.00
2022-08-17T12:15:09.107Z,7568.00
2022-08-17T12:15:44.769Z,7416.00
2022-08-17T12:16:44.801Z,7268.00
2022-08-17T12:17:44.837Z,7116.00
2022-08-17T12:18:44.869Z,6968.00
2022-08-17T12:19:44.907Z,6800.00
2022-08-17T12:20:44.938Z,6740.00
2022-08-17T12:21:44.973Z,6796.00
2022-08-17T12:22:45.004Z,6868.00
2022-08-17T12:23:45.044Z,6928.00
2022-08-17T12:24:45.074Z,6952.00
2022-08-17T12:25:45.109Z,6956.00
2022-08-17T12:26:45.147Z,6948.00
2022-08-17T12:28:04.608Z,6196.00
2022-08-17T12:28:45.222Z,5540.00
2022-08-17T12:29:45.250Z,5652.00
2022-08-17T12:30:45.277Z,6816.00
2022-08-17T12:31:45.313Z,6888.00
2022-08-17T12:32:45.345Z,6912.00
2022-08-17T12:33:45.381Z,6852.00
2022-08-17T12:34:45.411Z,6752.00
2022-08-17T12:35:45.463Z,6772.00
2022-08-17T12:36:45.482Z,6788.00
2022-08-17T12:37:45.516Z,6784.00
2022-08-17T12:38:45.547Z,6792.00
2022-08-17T12:39:45.692Z,6828.00
2022-08-17T12:40:45.615Z,6884.00
2022-08-17T12:41:45.656Z,6912.00
2022-08-17T12:42:45.682Z,6752.00
2022-08-17T12:43:45.718Z,6724.00
2022-08-17T12:44:49.986Z,6624.00
2022-08-17T12:45:45.787Z,6524.00
2022-08-17T12:46:45.818Z,6272.00
2022-08-17T12:47:45.904Z,5796.00
2022-08-17T12:48:59.802Z,5424.00
2022-08-17T12:49:45.922Z,5264.00
2022-08-17T12:50:45.962Z,5980.00
2022-08-17T12:51:45.989Z,5616.00
2022-08-17T12:52:46.020Z,5328.00
2022-08-17T12:53:46.257Z,5848.00
2022-08-17T12:54:46.087Z,6364.00
2022-08-17T12:55:46.125Z,6484.00
2022-08-17T12:56:46.160Z,6548.00
2022-08-17T12:57:46.260Z,6880.00
2022-08-17T12:58:46.220Z,7040.00
2022-08-17T12:59:46.258Z,7316.00
2022-08-17T13:00:47.577Z,7580.00
2022-08-17T13:01:46.407Z,7704.00
2022-08-17T13:02:46.355Z,7648.00
2022-08-17T13:03:46.423Z,7556.00
2022-08-17T13:04:46.423Z,7324.00
2022-08-17T13:05:46.460Z,6616.00
2022-08-17T13:06:46.489Z,7056.00
2022-08-17T13:07:46.723Z,7584.00
2022-08-17T13:08:46.560Z,7888.00
2022-08-17T13:09:46.590Z,7900.00
2022-08-17T13:10:46.624Z,7744.00
2022-08-17T13:11:46.659Z,7480.00
2022-08-17T13:12:46.692Z,7312.00
2022-08-17T13:13:46.728Z,7356.00
2022-08-17T13:14:46.761Z,7360.00
2022-08-17T13:15:46.794Z,7312.00
2022-08-17T13:16:46.826Z,7112.00
2022-08-17T13:17:46.946Z,6820.00
2022-08-17T13:18:46.892Z,6696.00
2022-08-17T13:19:46.928Z,6648.00
2022-08-17T13:20:46.961Z,6680.00
2022-08-17T13:21:46.994Z,6712.00
2022-08-17T13:22:47.028Z,6036.00
2022-08-17T13:23:53.719Z,6012.00
2022-08-17T13:24:47.094Z,6008.00
2022-08-17T13:25:47.132Z,6036.00
2022-08-17T13:26:47.162Z,6152.00
2022-08-17T13:27:47.203Z,6212.00
2022-08-17T13:28:47.230Z,6628.00
2022-08-17T13:29:52.407Z,7012.00
2022-08-17T13:30:47.314Z,7400.00
2022-08-17T13:31:52.898Z,7828.00
2022-08-17T13:32:47.363Z,7476.00
2022-08-17T13:33:47.399Z,7492.00
2022-08-17T13:35:12.090Z,7604.00
2022-08-17T13:35:50.266Z,7396.00
2022-08-17T13:36:47.932Z,7644.00
2022-08-17T13:37:47.532Z,7644.00
2022-08-17T13:38:47.569Z,7572.00
2022-08-17T13:39:47.631Z,6832.00
2022-08-17T13:40:47.631Z,6716.00
2022-08-17T13:41:47.666Z,6360.00
2022-08-17T13:42:52.086Z,6128.00
2022-08-17T13:43:47.732Z,5972.00
2022-08-17T13:44:47.766Z,5824.00
2022-08-17T13:45:50.707Z,5920.00
2022-08-17T13:46:47.842Z,6052.00
2022-08-17T13:47:47.865Z,6328.00
2022-08-17T13:48:47.900Z,6784.00
2022-08-17T13:49:48.867Z,7080.00
2022-08-17T13:50:47.965Z,7064.00
2022-08-17T13:51:48.000Z,6940.00
2022-08-17T13:52:51.939Z,7280.00
2022-08-17T13:53:48.068Z,8184.00
2022-08-17T13:54:48.098Z,8612.00
2022-08-17T13:55:48.136Z,8872.00
2022-08-17T13:56:48.165Z,9308.00
2022-08-17T13:57:48.199Z,9740.00
2022-08-17T13:58:48.234Z,10140.00
2022-08-17T13:59:54.804Z,9740.00
2022-08-17T14:00:48.305Z,9532.00
2022-08-17T14:01:53.471Z,9688.00
2022-08-17T14:02:48.367Z,9832.00
2022-08-17T14:03:48.399Z,9824.00
2022-08-17T14:04:48.436Z,9760.00
2022-08-17T14:05:48.466Z,9888.00
2022-08-17T14:06:53.385Z,9772.00
2022-08-17T14:07:48.534Z,9660.00
2022-08-17T14:08:48.568Z,9376.00
2022-08-17T14:09:48.602Z,8736.00
2022-08-17T14:10:48.635Z,7736.00
2022-08-17T14:11:48.669Z,6956.00
2022-08-17T14:12:48.703Z,6484.00
2022-08-17T14:13:48.737Z,6268.00
2022-08-17T14:14:48.771Z,6108.00
2022-08-17T14:15:54.965Z,5984.00
2022-08-17T14:16:48.842Z,5796.00
2022-08-17T14:17:48.870Z,5708.00
2022-08-17T14:18:56.253Z,5856.00
2022-08-17T14:19:48.937Z,6200.00
2022-08-17T14:20:48.971Z,6724.00
2022-08-17T14:21:49.004Z,7152.00
2022-08-17T14:22:49.042Z,7452.00
2022-08-17T14:23:54.919Z,7656.00
2022-08-17T14:24:49.103Z,7756.00
2022-08-17T14:25:49.136Z,7724.00
2022-08-17T14:26:49.174Z,7560.00
2022-08-17T14:27:53.396Z,7352.00
2022-08-17T14:28:54.525Z,7176.00
2022-08-17T14:29:49.271Z,7076.00
2022-08-17T14:30:49.303Z,7000.00
2022-08-17T14:31:54.112Z,6884.00
2022-08-17T14:32:49.372Z,6704.00
2022-08-17T14:33:49.406Z,6388.00
2022-08-17T14:34:49.438Z,6144.00
2022-08-17T14:35:49.473Z,6108.00
2022-08-17T14:36:49.507Z,6284.00
2022-08-17T14:37:49.768Z,6552.00
2022-08-17T14:38:49.570Z,6800.00
2022-08-17T14:39:49.692Z,6972.00
2022-08-17T14:40:49.636Z,7084.00
2022-08-17T14:41:49.671Z,7260.00
2022-08-17T14:42:49.703Z,7432.00
2022-08-17T14:43:49.734Z,7620.00
2022-08-17T14:44:49.769Z,7728.00
2022-08-17T14:45:49.801Z,7832.00
2022-08-17T14:46:50.155Z,7780.00
2022-08-17T14:47:50.035Z,7672.00
2022-08-17T14:48:53.878Z,7516.00
2022-08-17T14:49:49.935Z,7452.00
2022-08-17T14:50:49.970Z,7492.00
2022-08-17T14:51:49.997Z,7600.00
2022-08-17T14:52:50.034Z,7696.00
2022-08-17T14:53:50.066Z,7836.00
2022-08-17T14:54:50.099Z,8420.00
2022-08-17T14:55:50.131Z,8696.00
2022-08-17T14:56:51.582Z,8116.00
2022-08-17T14:57:50.411Z,8656.00
2022-08-17T14:58:50.233Z,8804.00
2022-08-17T14:59:52.346Z,8772.00
2022-08-17T15:00:50.298Z,8344.00
2022-08-17T15:01:50.425Z,7796.00
2022-08-17T15:02:50.366Z,6880.00
2022-08-17T15:03:50.396Z,6796.00
2022-08-17T15:04:50.433Z,6476.00
2022-08-17T15:05:50.463Z,6160.00
2022-08-17T15:06:50.498Z,6308.00
2022-08-17T15:07:50.789Z,6172.00
2022-08-17T15:08:50.563Z,6048.00
2022-08-17T15:09:50.598Z,5956.00
2022-08-17T15:10:50.629Z,5900.00
2022-08-17T15:11:50.686Z,6012.00
2022-08-17T15:12:50.737Z,5528.00
2022-08-17T15:13:52.346Z,5928.00
2022-08-17T15:14:50.762Z,5864.00
2022-08-17T15:15:50.794Z,5836.00
2022-08-17T15:16:50.832Z,5484.00
2022-08-17T15:17:50.885Z,5476.00
2022-08-17T15:18:50.896Z,5460.00
2022-08-17T15:19:50.938Z,5404.00
2022-08-17T15:20:50.960Z,5348.00
2022-08-17T15:21:50.993Z,5000.00
2022-08-17T15:22:51.026Z,5132.00
2022-08-17T15:23:51.059Z,4996.00
2022-08-17T15:24:51.094Z,4796.00
2022-08-17T15:25:51.125Z,4776.00
2022-08-17T15:26:51.160Z,4812.00
2022-08-17T15:27:51.455Z,4944.00
2022-08-17T15:28:54.377Z,5216.00
2022-08-17T15:29:51.265Z,5696.00
2022-08-17T15:30:51.293Z,6040.00
2022-08-17T15:31:51.323Z,6240.00
2022-08-17T15:32:54.723Z,6348.00
2022-08-17T15:33:51.388Z,6408.00
2022-08-17T15:34:51.424Z,6364.00
2022-08-17T15:35:51.455Z,6172.00
2022-08-17T15:36:51.495Z,5860.00
2022-08-17T15:37:51.837Z,5480.00
2022-08-17T15:38:51.555Z,5112.00
2022-08-17T15:39:51.686Z,4792.00
2022-08-17T15:40:51.622Z,4540.00
2022-08-17T15:41:58.038Z,4372.00
2022-08-17T15:42:51.782Z,4240.00
2022-08-17T15:43:51.719Z,4124.00
2022-08-17T15:44:51.752Z,4028.00
2022-08-17T15:45:58.714Z,3912.00
2022-08-17T15:46:51.819Z,3780.00
2022-08-17T15:47:52.114Z,3684.00
2022-08-17T15:48:51.885Z,3628.00
2022-08-17T15:49:56.676Z,3600.00
2022-08-17T15:50:51.963Z,3556.00
2022-08-17T15:51:51.984Z,3532.00
2022-08-17T15:52:52.017Z,3520.00
2022-08-17T15:53:52.047Z,3508.00
2022-08-17T15:54:52.080Z,3488.00
2022-08-17T15:55:52.118Z,3476.00
2022-08-17T15:56:52.147Z,3464.00
2022-08-17T15:57:52.576Z,3452.00
2022-08-17T15:58:52.214Z,3428.00
2022-08-17T15:59:55.079Z,3436.00
2022-08-17T16:01:03.242Z,3408.00
2022-08-17T16:03:16.011Z,3396.00
2022-08-17T16:03:46.978Z,3360.00
2022-08-17T16:04:04.069Z,3348.00
2022-08-17T16:04:52.457Z,3332.00
2022-08-17T16:05:52.441Z,3308.00
2022-08-17T16:06:52.474Z,3284.00
2022-08-17T16:07:53.412Z,3256.00
2022-08-17T16:08:52.553Z,3244.00
2022-08-17T16:09:52.571Z,3228.00
2022-08-17T16:10:52.617Z,3244.00
2022-08-17T16:11:55.107Z,3284.00
2022-08-17T16:12:52.950Z,3328.00
2022-08-17T16:13:54.880Z,3352.00
2022-08-17T16:14:52.733Z,3348.00
2022-08-17T16:15:57.088Z,3352.00
2022-08-17T16:16:52.800Z,3376.00
2022-08-17T16:17:53.168Z,3320.00
2022-08-17T16:18:53.590Z,3348.00
2022-08-17T16:19:55.932Z,3388.00
2022-08-17T16:20:52.940Z,3420.00
2022-08-17T16:21:52.965Z,3488.00
2022-08-17T16:22:54.157Z,3456.00
2022-08-17T16:23:53.022Z,3456.00
2022-08-17T16:24:57.416Z,3468.00
2022-08-17T16:25:54.433Z,3528.00
2022-08-17T16:26:53.122Z,3608.00
2022-08-17T16:27:53.326Z,3696.00
2022-08-17T16:28:53.185Z,3744.00
2022-08-17T16:29:55.478Z,3792.00
2022-08-17T16:30:53.250Z,3752.00
2022-08-17T16:31:53.280Z,3780.00
2022-08-17T16:32:53.537Z,3828.00
2022-08-17T16:34:03.793Z,3684.00
2022-08-17T16:34:53.378Z,3728.00
2022-08-17T16:35:53.409Z,3572.00
2022-08-17T16:36:56.153Z,3764.00
2022-08-17T16:37:53.474Z,3596.00
2022-08-17T16:38:53.509Z,3544.00
2022-08-17T16:39:53.867Z,3684.00
2022-08-17T16:40:53.674Z,3912.00
2022-08-17T16:41:53.606Z,3792.00
2022-08-17T16:42:53.723Z,3636.00
2022-08-17T16:43:53.670Z,3484.00
2022-08-17T16:44:53.705Z,3128.00
2022-08-17T16:45:53.737Z,3052.00
2022-08-17T16:46:53.778Z,3100.00
2022-08-17T16:47:53.796Z,3112.00
2022-08-17T16:48:53.833Z,3252.00
2022-08-17T16:49:53.896Z,3388.00
2022-08-17T16:51:02.913Z,3448.00
2022-08-17T16:51:53.927Z,3408.00
2022-08-17T16:52:53.968Z,3348.00
2022-08-17T16:53:58.702Z,3284.00
2022-08-17T16:54:54.023Z,3232.00
2022-08-17T16:55:54.057Z,3192.00
2022-08-17T16:56:54.089Z,3184.00
2022-08-17T16:57:54.120Z,3204.00
2022-08-17T16:58:54.152Z,3252.00
2022-08-17T16:59:54.184Z,3324.00
2022-08-17T17:00:54.394Z,3368.00
2022-08-17T17:01:54.248Z,3428.00
2022-08-17T17:02:54.281Z,3496.00
2022-08-17T17:03:58.137Z,3552.00
2022-08-17T17:04:54.347Z,3556.00
2022-08-17T17:05:57.873Z,3500.00
2022-08-17T17:06:54.409Z,3452.00
2022-08-17T17:07:54.440Z,3392.00
2022-08-17T17:08:54.476Z,3324.00
2022-08-17T17:09:54.507Z,3228.00
2022-08-17T17:10:54.539Z,3104.00
2022-08-17T17:11:54.584Z,2968.00
2022-08-17T17:13:03.133Z,2856.00
2022-08-17T17:13:54.636Z,2752.00
2022-08-17T17:14:54.667Z,2652.00
2022-08-17T17:15:54.698Z,2548.00
2022-08-17T17:16:54.733Z,2468.00
2022-08-17T17:17:54.763Z,2400.00
2022-08-17T17:18:54.796Z,2344.00
2022-08-17T17:19:54.826Z,2292.00
2022-08-17T17:20:54.862Z,2248.00
2022-08-17T17:21:54.894Z,2200.00
2022-08-17T17:22:54.923Z,2172.00
2022-08-17T17:23:55.157Z,2152.00
2022-08-17T17:24:54.989Z,2144.00
2022-08-17T17:25:55.019Z,2128.00
2022-08-17T17:26:55.052Z,2124.00
2022-08-17T17:27:55.086Z,2120.00
2022-08-17T17:28:55.117Z,2108.00
2022-08-17T17:29:55.165Z,2096.00
2022-08-17T17:30:55.191Z,2088.00
2022-08-17T17:31:55.229Z,2076.00
2022-08-17T17:32:55.244Z,2072.00
2022-08-17T17:33:55.274Z,2064.00
2022-08-17T17:34:55.326Z,2056.00
2022-08-17T17:35:55.349Z,2044.00
2022-08-17T17:36:55.383Z,2036.00
2022-08-17T17:37:55.417Z,2020.00
2022-08-17T17:38:55.437Z,2000.00
2022-08-17T17:39:55.546Z,1972.00
2022-08-17T17:40:55.498Z,1948.00
2022-08-17T17:41:55.543Z,1924.00
2022-08-17T17:42:55.561Z,1880.00
2022-08-17T17:43:55.592Z,1844.00
2022-08-17T17:44:55.627Z,1796.00
2022-08-17T17:45:55.658Z,1748.00
2022-08-17T17:46:55.690Z,1708.00
2022-08-17T17:47:55.718Z,1664.00
2022-08-17T17:48:55.753Z,1632.00
2022-08-17T17:49:55.784Z,1600.00
2022-08-17T17:50:55.812Z,1556.00
2022-08-17T17:52:11.020Z,1520.00
2022-08-17T17:52:55.877Z,1480.00
2022-08-17T17:53:55.907Z,1452.00
2022-08-17T17:54:55.938Z,1424.00
2022-08-17T17:55:55.972Z,1404.00
2022-08-17T17:56:56.007Z,1388.00
2022-08-17T17:57:56.037Z,1364.00
2022-08-17T17:58:56.068Z,1340.00
2022-08-17T17:59:56.095Z,1308.00
2022-08-17T18:00:56.144Z,1256.00
2022-08-17T18:01:56.214Z,1216.00
2022-08-17T18:02:56.192Z,1200.00
2022-08-17T18:03:56.239Z,1184.00
2022-08-17T18:04:56.254Z,1148.00
2022-08-17T18:05:56.288Z,1128.00
2022-08-17T18:06:56.317Z,1112.00
2022-08-17T18:07:56.346Z,1084.00
2022-08-17T18:08:56.382Z,1060.00
2022-08-17T18:10:01.077Z,1032.00
2022-08-17T18:10:56.443Z,1012.00
2022-08-17T18:11:59.054Z,984.00
2022-08-17T18:12:56.512Z,960.00
2022-08-17T18:13:56.537Z,932.00
2022-08-17T18:14:56.566Z,912.00
2022-08-17T18:15:56.602Z,880.00
2022-08-17T18:16:56.631Z,856.00
2022-08-17T18:17:56.662Z,832.00
2022-08-17T18:18:56.693Z,808.00
2022-08-17T18:19:56.725Z,780.00
2022-08-17T18:20:56.765Z,752.00
2022-08-17T18:21:56.787Z,728.00
2022-08-17T18:22:56.817Z,704.00
2022-08-17T18:23:57.052Z,680.00
2022-08-17T18:24:56.879Z,652.00
2022-08-17T18:25:56.914Z,628.00
2022-08-17T18:26:56.941Z,600.00
2022-08-17T18:27:56.975Z,576.00
2022-08-17T18:28:57.005Z,548.00
2022-08-17T18:29:57.039Z,520.00
2022-08-17T18:30:57.067Z,496.00
2022-08-17T18:31:57.098Z,468.00
2022-08-17T18:32:57.131Z,440.00
2022-08-17T18:33:57.164Z,416.00
2022-08-17T18:34:57.194Z,392.00
2022-08-17T18:35:58.468Z,364.00
2022-08-17T18:36:57.255Z,340.00
2022-08-17T18:37:57.290Z,316.00
2022-08-17T18:38:57.318Z,296.00
2022-08-17T18:39:57.487Z,276.00
2022-08-17T18:40:57.379Z,256.00
2022-08-17T18:41:57.413Z,240.00
2022-08-17T18:42:57.519Z,220.00
2022-08-17T18:43:57.475Z,204.00
2022-08-17T18:44:57.507Z,188.00
2022-08-17T18:45:57.743Z,172.00
2022-08-17T18:46:57.569Z,160.00
2022-08-17T18:47:57.601Z,144.00
2022-08-17T18:48:58.871Z,132.00
2022-08-17T18:49:57.671Z,120.00
2022-08-17T18:50:57.692Z,112.00
2022-08-17T18:51:57.928Z,96.00
2022-08-17T18:52:57.754Z,88.00
2022-08-17T18:53:57.788Z,80.00
2022-08-17T18:54:57.818Z,68.00
2022-08-17T18:55:57.849Z,60.00
2022-08-17T18:56:57.878Z,56.00
2022-08-17T18:57:57.911Z,52.00
2022-08-17T18:58:57.941Z,44.00
2022-08-17T18:59:57.973Z,40.00
2022-08-17T19:00:58.004Z,32.00
2022-08-17T19:01:59.891Z,28.00
2022-08-17T19:02:58.126Z,28.00
2022-08-17T19:03:58.100Z,20.00
2022-08-17T19:04:58.132Z,20.00
2022-08-17T19:05:58.160Z,16.00
2022-08-17T19:06:58.188Z,12.00
2022-08-17T19:07:58.222Z,12.00
2022-08-17T19:08:58.251Z,12.00
2022-08-17T19:09:58.284Z,8.00
2022-08-17T19:10:58.314Z,4.00
2022-08-17T19:11:58.344Z,8.00
2022-08-17T19:13:00.322Z,8.00
2022-08-17T19:13:58.409Z,4.00
2022-08-17T19:14:58.438Z,4.00
2022-08-17T19:16:11.780Z,4.00
2022-08-17T19:16:58.497Z,4.00
2022-08-17T19:17:58.531Z,0.00
2022-08-17T19:18:58.559Z,4.00
2022-08-17T19:19:58.598Z,4.00
2022-08-17T19:20:58.622Z,0.00